sensor_id;sensor_type;location;lat;lon;timestamp;temperature;humidity
46123;DHT22;31856;-35.404;149.120;2023-02-15T04:22:03;29.10;40.80
46123;DHT22;31856;-35.404;149.120;2023-02-15T04:24:54;29.20;41.60
46123;DHT22;31856;-35.404;149.120;2023-02-15T04:27:56;29.30;41.50
46123;DHT22;31856;-35.404;149.120;2023-02-15T04:30:47;29.60;40.60
46123;DHT22;31856;-35.404;149.120;2023-02-15T04:37:33;29.00;39.20
46123;DHT22;31856;-35.404;149.120;2023-02-15T04:54:41;29.40;40.80
46123;DHT22;31856;-35.404;149.120;2023-02-15T05:00:18;29.40;39.70
46123;DHT22;31856;-35.404;149.120;2023-02-15T05:02:49;29.20;40.10
46123;DHT22;31856;-35.404;149.120;2023-02-15T05:05:19;29.30;40.10
46123;DHT22;31856;-35.404;149.120;2023-02-15T05:07:48;29.40;39.80
46123;DHT22;31856;-35.404;149.120;2023-02-15T05:10:17;29.40;39.20
46123;DHT22;31856;-35.404;149.120;2023-02-15T05:12:47;29.40;39.50
46123;DHT22;31856;-35.404;149.120;2023-02-15T05:15:17;29.60;39.90
46123;DHT22;31856;-35.404;149.120;2023-02-15T05:17:47;29.60;40.20
46123;DHT22;31856;-35.404;149.120;2023-02-15T05:20:16;29.70;39.70
46123;DHT22;31856;-35.404;149.120;2023-02-15T05:22:47;29.70;39.60
46123;DHT22;31856;-35.404;149.120;2023-02-15T05:25:16;29.80;39.20
46123;DHT22;31856;-35.404;149.120;2023-02-15T05:28:04;29.80;39.50
46123;DHT22;31856;-35.404;149.120;2023-02-15T05:30:49;29.90;38.90
46123;DHT22;31856;-35.404;149.120;2023-02-15T05:33:20;29.80;39.20
46123;DHT22;31856;-35.404;149.120;2023-02-15T05:35:50;29.90;38.60
46123;DHT22;31856;-35.404;149.120;2023-02-15T05:38:22;29.80;37.50
46123;DHT22;31856;-35.404;149.120;2023-02-15T05:40:52;29.70;37.70
46123;DHT22;31856;-35.404;149.120;2023-02-15T05:43:22;29.60;38.20
46123;DHT22;31856;-35.404;149.120;2023-02-15T05:45:53;29.50;38.10
46123;DHT22;31856;-35.404;149.120;2023-02-15T05:48:24;29.50;38.10
46123;DHT22;31856;-35.404;149.120;2023-02-15T05:51:01;29.50;38.70
46123;DHT22;31856;-35.404;149.120;2023-02-15T05:53:32;29.60;39.10
46123;DHT22;31856;-35.404;149.120;2023-02-15T05:56:02;29.70;39.60
46123;DHT22;31856;-35.404;149.120;2023-02-15T05:58:33;29.70;39.10
46123;DHT22;31856;-35.404;149.120;2023-02-15T06:01:12;29.80;39.10
46123;DHT22;31856;-35.404;149.120;2023-02-15T06:03:42;29.80;39.50
46123;DHT22;31856;-35.404;149.120;2023-02-15T06:06:12;29.80;39.30
46123;DHT22;31856;-35.404;149.120;2023-02-15T06:08:41;29.80;38.80
46123;DHT22;31856;-35.404;149.120;2023-02-15T06:11:11;29.80;39.20
46123;DHT22;31856;-35.404;149.120;2023-02-15T06:13:40;29.80;38.30
46123;DHT22;31856;-35.404;149.120;2023-02-15T06:16:09;29.80;38.90
46123;DHT22;31856;-35.404;149.120;2023-02-15T06:18:39;29.70;38.60
46123;DHT22;31856;-35.404;149.120;2023-02-15T06:21:08;29.80;38.70
46123;DHT22;31856;-35.404;149.120;2023-02-15T06:23:38;29.80;38.60
46123;DHT22;31856;-35.404;149.120;2023-02-15T06:26:07;29.80;39.30
46123;DHT22;31856;-35.404;149.120;2023-02-15T06:28:37;29.70;38.60
46123;DHT22;31856;-35.404;149.120;2023-02-15T06:31:06;29.70;38.70
46123;DHT22;31856;-35.404;149.120;2023-02-15T06:33:36;29.70;38.60
46123;DHT22;31856;-35.404;149.120;2023-02-15T06:36:05;29.60;38.00
46123;DHT22;31856;-35.404;149.120;2023-02-15T06:38:35;29.40;39.00
46123;DHT22;31856;-35.404;149.120;2023-02-15T06:57:01;28.70;39.90
46123;DHT22;31856;-35.404;149.120;2023-02-15T06:59:30;28.90;40.20
46123;DHT22;31856;-35.404;149.120;2023-02-15T07:02:00;28.90;39.50
46123;DHT22;31856;-35.404;149.120;2023-02-15T07:04:29;28.90;38.60
46123;DHT22;31856;-35.404;149.120;2023-02-15T07:06:59;28.90;39.30
46123;DHT22;31856;-35.404;149.120;2023-02-15T07:09:29;28.90;39.00
46123;DHT22;31856;-35.404;149.120;2023-02-15T07:12:00;28.90;39.10
46123;DHT22;31856;-35.404;149.120;2023-02-15T07:14:48;28.90;38.80
46123;DHT22;31856;-35.404;149.120;2023-02-15T07:17:17;28.80;38.60
46123;DHT22;31856;-35.404;149.120;2023-02-15T07:20:05;28.80;38.90
46123;DHT22;31856;-35.404;149.120;2023-02-15T07:22:36;28.80;39.10
46123;DHT22;31856;-35.404;149.120;2023-02-15T07:25:07;28.80;38.80
46123;DHT22;31856;-35.404;149.120;2023-02-15T07:27:38;28.80;39.00
46123;DHT22;31856;-35.404;149.120;2023-02-15T07:30:10;28.70;38.80
46123;DHT22;31856;-35.404;149.120;2023-02-15T07:32:40;28.70;38.20
46123;DHT22;31856;-35.404;149.120;2023-02-15T07:35:32;28.70;38.70
46123;DHT22;31856;-35.404;149.120;2023-02-15T07:38:01;28.50;38.20
46123;DHT22;31856;-35.404;149.120;2023-02-15T07:40:31;28.50;38.70
46123;DHT22;31856;-35.404;149.120;2023-02-15T07:43:00;28.40;38.70
46123;DHT22;31856;-35.404;149.120;2023-02-15T07:45:29;28.40;39.40
46123;DHT22;31856;-35.404;149.120;2023-02-15T07:48:03;28.40;38.50
46123;DHT22;31856;-35.404;149.120;2023-02-15T07:50:32;28.20;38.60
46123;DHT22;31856;-35.404;149.120;2023-02-15T07:53:03;28.20;39.30
46123;DHT22;31856;-35.404;149.120;2023-02-15T15:09:25;18.80;69.70
46123;DHT22;31856;-35.404;149.120;2023-02-15T15:14:44;18.70;70.20
46123;DHT22;31856;-35.404;149.120;2023-02-15T15:18:42;18.70;70.30
46123;DHT22;31856;-35.404;149.120;2023-02-15T15:20:19;18.70;70.50
46123;DHT22;31856;-35.404;149.120;2023-02-15T15:25:46;18.70;70.60
46123;DHT22;31856;-35.404;149.120;2023-02-15T15:29:01;18.60;71.00
46123;DHT22;31856;-35.404;149.120;2023-02-15T15:31:15;18.50;71.00
46123;DHT22;31856;-35.404;149.120;2023-02-15T15:49:32;18.30;71.50
46123;DHT22;31856;-35.404;149.120;2023-02-15T15:52:07;18.30;71.80
46123;DHT22;31856;-35.404;149.120;2023-02-15T15:54:38;18.20;72.00
46123;DHT22;31856;-35.404;149.120;2023-02-15T15:57:43;18.20;71.90
46123;DHT22;31856;-35.404;149.120;2023-02-15T16:00:04;18.20;72.20
46123;DHT22;31856;-35.404;149.120;2023-02-15T16:02:52;18.20;72.20
46123;DHT22;31856;-35.404;149.120;2023-02-15T16:05:22;18.10;72.60
46123;DHT22;31856;-35.404;149.120;2023-02-15T16:07:51;18.10;72.30
46123;DHT22;31856;-35.404;149.120;2023-02-15T16:10:27;18.20;72.30
46123;DHT22;31856;-35.404;149.120;2023-02-15T16:12:57;18.10;72.30
46123;DHT22;31856;-35.404;149.120;2023-02-15T16:15:46;18.10;72.40
46123;DHT22;31856;-35.404;149.120;2023-02-15T16:18:20;18.10;72.90
46123;DHT22;31856;-35.404;149.120;2023-02-15T16:20:55;18.10;73.00
46123;DHT22;31856;-35.404;149.120;2023-02-15T16:23:39;18.10;72.90
46123;DHT22;31856;-35.404;149.120;2023-02-15T16:26:32;18.10;73.10
46123;DHT22;31856;-35.404;149.120;2023-02-15T16:29:13;18.00;73.70
46123;DHT22;31856;-35.404;149.120;2023-02-15T16:31:43;18.00;73.50
46123;DHT22;31856;-35.404;149.120;2023-02-15T16:34:16;17.90;73.40
46123;DHT22;31856;-35.404;149.120;2023-02-15T16:36:46;17.80;74.00
46123;DHT22;31856;-35.404;149.120;2023-02-15T16:39:19;17.80;74.00
46123;DHT22;31856;-35.404;149.120;2023-02-15T16:41:49;17.80;73.50
46123;DHT22;31856;-35.404;149.120;2023-02-15T16:44:23;17.70;73.90
46123;DHT22;31856;-35.404;149.120;2023-02-15T16:46:54;17.70;73.80
46123;DHT22;31856;-35.404;149.120;2023-02-15T16:49:25;17.60;73.80
46123;DHT22;31856;-35.404;149.120;2023-02-15T16:51:56;17.60;73.70
46123;DHT22;31856;-35.404;149.120;2023-02-15T16:54:30;17.60;73.60
46123;DHT22;31856;-35.404;149.120;2023-02-15T16:57:00;17.50;73.90
46123;DHT22;31856;-35.404;149.120;2023-02-15T16:59:34;17.50;73.70
46123;DHT22;31856;-35.404;149.120;2023-02-15T17:02:05;17.50;74.00
46123;DHT22;31856;-35.404;149.120;2023-02-15T17:04:35;17.50;74.00
46123;DHT22;31856;-35.404;149.120;2023-02-15T17:07:13;17.40;74.20
46123;DHT22;31856;-35.404;149.120;2023-02-15T17:09:52;17.40;74.30
46123;DHT22;31856;-35.404;149.120;2023-02-15T17:15:31;17.40;74.40
46123;DHT22;31856;-35.404;149.120;2023-02-15T17:18:05;17.30;74.60
46123;DHT22;31856;-35.404;149.120;2023-02-15T17:20:39;17.30;74.30
46123;DHT22;31856;-35.404;149.120;2023-02-15T17:25:52;17.30;74.30
46123;DHT22;31856;-35.404;149.120;2023-02-15T17:28:25;17.30;74.40
46123;DHT22;31856;-35.404;149.120;2023-02-15T17:30:56;17.20;74.50
46123;DHT22;31856;-35.404;149.120;2023-02-15T17:38:39;17.20;74.30
46123;DHT22;31856;-35.404;149.120;2023-02-15T17:41:09;17.10;74.30
46123;DHT22;31856;-35.404;149.120;2023-02-15T17:43:38;17.10;74.50
46123;DHT22;31856;-35.404;149.120;2023-02-15T17:46:09;17.10;75.10
46123;DHT22;31856;-35.404;149.120;2023-02-15T17:48:39;17.00;74.80
46123;DHT22;31856;-35.404;149.120;2023-02-15T17:51:11;17.00;74.70
46123;DHT22;31856;-35.404;149.120;2023-02-15T17:53:42;16.90;75.00
46123;DHT22;31856;-35.404;149.120;2023-02-15T17:56:32;17.00;74.70
46123;DHT22;31856;-35.404;149.120;2023-02-15T17:59:01;16.90;75.00
46123;DHT22;31856;-35.404;149.120;2023-02-15T18:01:36;16.80;75.20
46123;DHT22;31856;-35.404;149.120;2023-02-15T18:04:25;16.80;75.60
46123;DHT22;31856;-35.404;149.120;2023-02-15T18:07:13;16.80;75.40
46123;DHT22;31856;-35.404;149.120;2023-02-15T18:10:03;16.80;75.30
46123;DHT22;31856;-35.404;149.120;2023-02-15T18:12:51;16.80;75.50
46123;DHT22;31856;-35.404;149.120;2023-02-15T18:15:20;16.70;75.50
46123;DHT22;31856;-35.404;149.120;2023-02-15T18:17:50;16.70;75.10
46123;DHT22;31856;-35.404;149.120;2023-02-15T18:20:24;16.80;75.40
46123;DHT22;31856;-35.404;149.120;2023-02-15T18:22:55;16.70;75.30
46123;DHT22;31856;-35.404;149.120;2023-02-15T18:25:26;16.70;75.20
46123;DHT22;31856;-35.404;149.120;2023-02-15T18:27:56;16.60;75.10
46123;DHT22;31856;-35.404;149.120;2023-02-15T18:30:26;16.60;75.00
46123;DHT22;31856;-35.404;149.120;2023-02-15T18:32:56;16.60;75.10
46123;DHT22;31856;-35.404;149.120;2023-02-15T18:35:29;16.60;75.10
46123;DHT22;31856;-35.404;149.120;2023-02-15T18:38:00;16.60;75.30
46123;DHT22;31856;-35.404;149.120;2023-02-15T18:40:30;16.50;75.80
46123;DHT22;31856;-35.404;149.120;2023-02-15T18:43:00;16.50;75.70
46123;DHT22;31856;-35.404;149.120;2023-02-15T18:45:30;16.50;75.30
46123;DHT22;31856;-35.404;149.120;2023-02-15T18:48:01;16.40;75.50
46123;DHT22;31856;-35.404;149.120;2023-02-15T18:50:32;16.40;75.30
46123;DHT22;31856;-35.404;149.120;2023-02-15T18:53:03;16.40;75.10
46123;DHT22;31856;-35.404;149.120;2023-02-15T18:55:34;16.40;75.70
46123;DHT22;31856;-35.404;149.120;2023-02-15T18:58:04;16.30;75.90
46123;DHT22;31856;-35.404;149.120;2023-02-15T19:00:34;16.30;75.70
46123;DHT22;31856;-35.404;149.120;2023-02-15T19:03:05;16.30;75.70
46123;DHT22;31856;-35.404;149.120;2023-02-15T19:05:35;16.30;75.90
46123;DHT22;31856;-35.404;149.120;2023-02-15T19:08:08;16.30;75.60
46123;DHT22;31856;-35.404;149.120;2023-02-15T19:10:42;16.30;75.50
46123;DHT22;31856;-35.404;149.120;2023-02-15T19:13:12;16.20;76.30
46123;DHT22;31856;-35.404;149.120;2023-02-15T19:15:42;16.30;76.50
46123;DHT22;31856;-35.404;149.120;2023-02-15T19:18:12;16.20;76.40
46123;DHT22;31856;-35.404;149.120;2023-02-15T19:20:43;16.20;77.00
46123;DHT22;31856;-35.404;149.120;2023-02-15T19:23:16;16.10;76.80
46123;DHT22;31856;-35.404;149.120;2023-02-15T19:25:47;16.20;76.80
46123;DHT22;31856;-35.404;149.120;2023-02-15T19:28:18;16.20;77.00
46123;DHT22;31856;-35.404;149.120;2023-02-15T19:30:48;16.10;77.40
46123;DHT22;31856;-35.404;149.120;2023-02-15T19:33:18;16.10;77.20
46123;DHT22;31856;-35.404;149.120;2023-02-15T19:35:50;16.10;76.70
46123;DHT22;31856;-35.404;149.120;2023-02-15T19:38:24;16.10;76.60
46123;DHT22;31856;-35.404;149.120;2023-02-15T19:40:54;16.10;77.30
46123;DHT22;31856;-35.404;149.120;2023-02-15T19:43:25;16.00;77.10
46123;DHT22;31856;-35.404;149.120;2023-02-15T19:45:58;16.10;76.90
46123;DHT22;31856;-35.404;149.120;2023-02-15T19:48:28;16.00;77.10
46123;DHT22;31856;-35.404;149.120;2023-02-15T19:50:58;16.10;77.10
46123;DHT22;31856;-35.404;149.120;2023-02-15T19:53:28;16.10;76.60
46123;DHT22;31856;-35.404;149.120;2023-02-15T19:55:58;16.10;76.40
46123;DHT22;31856;-35.404;149.120;2023-02-15T19:58:28;16.00;77.20
46123;DHT22;31856;-35.404;149.120;2023-02-15T20:00:58;16.00;77.20
46123;DHT22;31856;-35.404;149.120;2023-02-15T20:03:28;16.10;76.80
46123;DHT22;31856;-35.404;149.120;2023-02-15T20:05:58;16.00;77.40
46123;DHT22;31856;-35.404;149.120;2023-02-15T20:08:28;16.00;77.20
46123;DHT22;31856;-35.404;149.120;2023-02-15T20:10:58;16.00;77.00
46123;DHT22;31856;-35.404;149.120;2023-02-15T20:13:28;16.00;77.40
46123;DHT22;31856;-35.404;149.120;2023-02-15T20:15:58;16.00;77.60
46123;DHT22;31856;-35.404;149.120;2023-02-15T20:18:33;16.00;77.40
46123;DHT22;31856;-35.404;149.120;2023-02-15T20:21:02;16.00;77.20
46123;DHT22;31856;-35.404;149.120;2023-02-15T20:23:35;16.00;77.00
46123;DHT22;31856;-35.404;149.120;2023-02-15T20:26:15;16.00;77.70
46123;DHT22;31856;-35.404;149.120;2023-02-15T20:28:46;16.00;78.00
46123;DHT22;31856;-35.404;149.120;2023-02-15T20:31:17;16.00;78.20
46123;DHT22;31856;-35.404;149.120;2023-02-15T20:33:49;16.00;78.00
46123;DHT22;31856;-35.404;149.120;2023-02-15T20:36:19;16.00;78.10
46123;DHT22;31856;-35.404;149.120;2023-02-15T20:38:53;16.00;78.30
46123;DHT22;31856;-35.404;149.120;2023-02-15T20:41:25;16.00;78.40
46123;DHT22;31856;-35.404;149.120;2023-02-15T20:44:12;16.10;78.20
46123;DHT22;31856;-35.404;149.120;2023-02-15T20:46:43;16.10;78.80
46123;DHT22;31856;-35.404;149.120;2023-02-15T20:49:12;16.10;78.70
46123;DHT22;31856;-35.404;149.120;2023-02-15T20:51:42;16.20;79.20
46123;DHT22;31856;-35.404;149.120;2023-02-15T20:54:13;16.20;78.90
46123;DHT22;31856;-35.404;149.120;2023-02-15T20:56:44;16.30;78.70
46123;DHT22;31856;-35.404;149.120;2023-02-15T20:59:18;16.30;78.50
46123;DHT22;31856;-35.404;149.120;2023-02-15T21:01:48;16.40;78.80
46123;DHT22;31856;-35.404;149.120;2023-02-15T21:04:19;16.40;78.60
46123;DHT22;31856;-35.404;149.120;2023-02-15T21:06:50;16.50;78.20
46123;DHT22;31856;-35.404;149.120;2023-02-15T21:09:20;16.50;78.10
46123;DHT22;31856;-35.404;149.120;2023-02-15T21:11:52;16.60;78.40
46123;DHT22;31856;-35.404;149.120;2023-02-15T21:14:23;16.60;78.20
46123;DHT22;31856;-35.404;149.120;2023-02-15T21:16:54;16.60;78.40
46123;DHT22;31856;-35.404;149.120;2023-02-15T21:19:23;16.70;78.40
46123;DHT22;31856;-35.404;149.120;2023-02-15T21:21:54;16.80;78.30
46123;DHT22;31856;-35.404;149.120;2023-02-15T21:24:25;16.80;78.00
46123;DHT22;31856;-35.404;149.120;2023-02-15T21:26:56;17.00;78.20
46123;DHT22;31856;-35.404;149.120;2023-02-15T21:29:27;17.50;76.70
46123;DHT22;31856;-35.404;149.120;2023-02-15T21:31:57;17.90;75.70
46123;DHT22;31856;-35.404;149.120;2023-02-15T21:34:27;18.10;75.20
46123;DHT22;31856;-35.404;149.120;2023-02-15T21:36:57;18.30;74.60
46123;DHT22;31856;-35.404;149.120;2023-02-15T21:39:27;18.40;75.30
46123;DHT22;31856;-35.404;149.120;2023-02-15T21:41:59;18.50;75.00
46123;DHT22;31856;-35.404;149.120;2023-02-15T21:44:46;18.50;74.70
46123;DHT22;31856;-35.404;149.120;2023-02-15T21:47:33;18.70;74.00
46123;DHT22;31856;-35.404;149.120;2023-02-15T21:50:22;18.80;74.40
46123;DHT22;31856;-35.404;149.120;2023-02-15T21:53:10;18.90;74.00
46123;DHT22;31856;-35.404;149.120;2023-02-15T21:55:40;19.00;72.70
46123;DHT22;31856;-35.404;149.120;2023-02-15T21:58:16;19.20;72.70
46123;DHT22;31856;-35.404;149.120;2023-02-15T22:00:46;19.20;72.40
46123;DHT22;31856;-35.404;149.120;2023-02-15T22:03:16;19.30;72.00
46123;DHT22;31856;-35.404;149.120;2023-02-15T22:05:46;19.40;71.80
46123;DHT22;31856;-35.404;149.120;2023-02-15T22:08:16;19.50;72.20
46123;DHT22;31856;-35.404;149.120;2023-02-15T22:10:46;19.60;71.60
46123;DHT22;31856;-35.404;149.120;2023-02-15T22:13:21;19.70;70.90
46123;DHT22;31856;-35.404;149.120;2023-02-15T22:15:53;19.70;70.90
46123;DHT22;31856;-35.404;149.120;2023-02-15T22:18:26;19.90;70.70
46123;DHT22;31856;-35.404;149.120;2023-02-15T22:21:00;20.00;70.80
46123;DHT22;31856;-35.404;149.120;2023-02-15T22:23:30;20.10;70.40
46123;DHT22;31856;-35.404;149.120;2023-02-15T22:26:07;20.10;70.50
46123;DHT22;31856;-35.404;149.120;2023-02-15T22:28:39;20.20;70.10
46123;DHT22;31856;-35.404;149.120;2023-02-15T22:31:13;20.30;69.80
46123;DHT22;31856;-35.404;149.120;2023-02-15T22:33:42;20.40;69.50
46123;DHT22;31856;-35.404;149.120;2023-02-15T22:36:27;20.50;69.90
46123;DHT22;31856;-35.404;149.120;2023-02-15T22:38:58;20.70;70.00
46123;DHT22;31856;-35.404;149.120;2023-02-15T22:41:28;20.90;69.80
46123;DHT22;31856;-35.404;149.120;2023-02-15T22:43:58;21.00;69.00
46123;DHT22;31856;-35.404;149.120;2023-02-15T22:46:28;21.20;68.60
46123;DHT22;31856;-35.404;149.120;2023-02-15T22:48:57;21.30;68.60
46123;DHT22;31856;-35.404;149.120;2023-02-15T22:51:28;21.50;68.30
46123;DHT22;31856;-35.404;149.120;2023-02-15T22:53:57;21.70;68.00
46123;DHT22;31856;-35.404;149.120;2023-02-15T22:56:30;21.80;67.40
46123;DHT22;31856;-35.404;149.120;2023-02-15T22:59:03;21.90;66.40
46123;DHT22;31856;-35.404;149.120;2023-02-15T23:01:34;22.00;66.40
46123;DHT22;31856;-35.404;149.120;2023-02-15T23:04:04;22.20;66.60
46123;DHT22;31856;-35.404;149.120;2023-02-15T23:06:34;22.40;66.30
46123;DHT22;31856;-35.404;149.120;2023-02-15T23:09:03;22.50;65.70
46123;DHT22;31856;-35.404;149.120;2023-02-15T23:11:33;22.70;64.40
46123;DHT22;31856;-35.404;149.120;2023-02-15T23:14:03;22.80;63.60
46123;DHT22;31856;-35.404;149.120;2023-02-15T23:16:33;22.90;64.00
46123;DHT22;31856;-35.404;149.120;2023-02-15T23:19:05;23.00;63.80
46123;DHT22;31856;-35.404;149.120;2023-02-15T23:21:35;23.10;63.00
46123;DHT22;31856;-35.404;149.120;2023-02-15T23:24:18;23.20;62.40
46123;DHT22;31856;-35.404;149.120;2023-02-15T23:26:50;23.20;62.20
46123;DHT22;31856;-35.404;149.120;2023-02-15T23:29:21;23.30;62.60
46123;DHT22;31856;-35.404;149.120;2023-02-15T23:31:51;23.40;61.60
46123;DHT22;31856;-35.404;149.120;2023-02-15T23:34:26;23.60;61.90
46123;DHT22;31856;-35.404;149.120;2023-02-15T23:36:56;23.70;60.00
46123;DHT22;31856;-35.404;149.120;2023-02-15T23:39:26;23.80;60.00
46123;DHT22;31856;-35.404;149.120;2023-02-15T23:42:24;23.90;58.70
46123;DHT22;31856;-35.404;149.120;2023-02-15T23:44:54;24.10;56.50
46123;DHT22;31856;-35.404;149.120;2023-02-15T23:47:31;24.20;55.20
46123;DHT22;31856;-35.404;149.120;2023-02-15T23:50:20;24.30;54.80
46123;DHT22;31856;-35.404;149.120;2023-02-15T23:52:51;24.40;55.00
46123;DHT22;31856;-35.404;149.120;2023-02-15T23:55:21;24.50;55.10
